Main page
METAR-TAF:

METAR-TAF

Airports :

Kushok Bakula Rimpochee Airport

Leh, India

latitude: 34-08-09N, longitude: 077-32-47E, elevation: 3256 m

METAR: missing

Time: 02:35 (21:05 UTC)

Forecast

The report was made 11 hours and 35 minutes ago, at 09:30 UTC
Forecast valid from 28 at 18 UTC to 29 at 12 UTC
Wind 2 kt from variable directions
Visibility: 6000 m
Becoming
from 29 at 09 UTC to 29 at 10 UTC
Wind 10 kt from the West/Northwest
Few clouds at a height of 7000 ft

TAF: VILH 280930Z 2818/2912 VRB02KT 6000 NSC BECMG 2909/2910 29010KT FEW070

Weather observations and forecasts of more than 4000 airports (METAR and TAF reports).

The available stations are represented by yellow and red dots on the map.

Hover mouse over dot to see the name of the station.

Then click to see weather observations and forecasts.

To change the map : click on the green buttons with a black cross to zoom in, on the green button with a dash to zoom out, or on the green arrows for adjacent maps.


METAR-TAF: